sensor_id;sensor_type;location;lat;lon;timestamp;P1;durP1;ratioP1;P2;durP2;ratioP2
57331;SDS011;43164;50.908;18.092;2024-03-02T00:01:32;59.20;;;34.70;;
57331;SDS011;43164;50.908;18.092;2024-03-02T00:04:03;59.50;;;36.80;;
57331;SDS011;43164;50.908;18.092;2024-03-02T00:06:33;54.10;;;32.30;;
57331;SDS011;43164;50.908;18.092;2024-03-02T00:09:00;56.30;;;33.90;;
57331;SDS011;43164;50.908;18.092;2024-03-02T00:11:28;55.10;;;33.20;;
57331;SDS011;43164;50.908;18.092;2024-03-02T00:13:56;58.40;;;33.10;;
57331;SDS011;43164;50.908;18.092;2024-03-02T00:16:23;54.10;;;32.10;;
57331;SDS011;43164;50.908;18.092;2024-03-02T00:18:53;55.20;;;33.10;;
57331;SDS011;43164;50.908;18.092;2024-03-02T00:21:21;55.30;;;33.80;;
57331;SDS011;43164;50.908;18.092;2024-03-02T00:26:25;60.10;;;34.40;;
57331;SDS011;43164;50.908;18.092;2024-03-02T00:28:54;56.10;;;33.20;;
57331;SDS011;43164;50.908;18.092;2024-03-02T00:33:53;52.60;;;32.80;;
57331;SDS011;43164;50.908;18.092;2024-03-02T00:36:26;53.00;;;33.30;;
57331;SDS011;43164;50.908;18.092;2024-03-02T00:38:56;54.60;;;33.80;;
57331;SDS011;43164;50.908;18.092;2024-03-02T00:41:24;55.20;;;34.60;;
57331;SDS011;43164;50.908;18.092;2024-03-02T00:44:06;56.30;;;32.50;;
57331;SDS011;43164;50.908;18.092;2024-03-02T00:46:35;54.60;;;31.70;;
57331;SDS011;43164;50.908;18.092;2024-03-02T00:49:05;54.40;;;31.90;;
57331;SDS011;43164;50.908;18.092;2024-03-02T00:51:38;55.60;;;32.40;;
57331;SDS011;43164;50.908;18.092;2024-03-02T00:54:09;56.90;;;32.90;;
57331;SDS011;43164;50.908;18.092;2024-03-02T00:56:35;52.70;;;31.30;;
57331;SDS011;43164;50.908;18.092;2024-03-02T00:59:06;56.20;;;33.70;;
57331;SDS011;43164;50.908;18.092;2024-03-02T01:01:34;55.20;;;32.70;;
57331;SDS011;43164;50.908;18.092;2024-03-02T01:04:04;54.00;;;31.90;;
57331;SDS011;43164;50.908;18.092;2024-03-02T01:06:32;56.20;;;33.10;;
57331;SDS011;43164;50.908;18.092;2024-03-02T01:09:00;55.80;;;32.40;;
57331;SDS011;43164;50.908;18.092;2024-03-02T01:11:29;50.40;;;31.20;;
57331;SDS011;43164;50.908;18.092;2024-03-02T01:13:57;56.10;;;32.80;;
57331;SDS011;43164;50.908;18.092;2024-03-02T01:16:25;57.80;;;33.70;;
57331;SDS011;43164;50.908;18.092;2024-03-02T01:18:52;52.30;;;32.60;;
57331;SDS011;43164;50.908;18.092;2024-03-02T01:21:20;51.50;;;31.40;;
57331;SDS011;43164;50.908;18.092;2024-03-02T01:23:47;54.30;;;31.60;;
57331;SDS011;43164;50.908;18.092;2024-03-02T01:26:15;51.20;;;31.30;;
57331;SDS011;43164;50.908;18.092;2024-03-02T01:28:42;52.20;;;30.20;;
57331;SDS011;43164;50.908;18.092;2024-03-02T01:31:10;56.20;;;32.30;;
57331;SDS011;43164;50.908;18.092;2024-03-02T01:33:38;51.70;;;31.40;;
57331;SDS011;43164;50.908;18.092;2024-03-02T01:36:05;52.30;;;32.00;;
57331;SDS011;43164;50.908;18.092;2024-03-02T01:38:33;54.50;;;31.70;;
57331;SDS011;43164;50.908;18.092;2024-03-02T01:41:00;53.40;;;31.40;;
57331;SDS011;43164;50.908;18.092;2024-03-02T01:43:30;59.20;;;33.00;;
57331;SDS011;43164;50.908;18.092;2024-03-02T01:45:58;54.40;;;31.80;;
57331;SDS011;43164;50.908;18.092;2024-03-02T01:48:26;57.50;;;31.70;;
57331;SDS011;43164;50.908;18.092;2024-03-02T01:50:54;53.90;;;29.50;;
57331;SDS011;43164;50.908;18.092;2024-03-02T01:53:22;54.10;;;32.40;;
57331;SDS011;43164;50.908;18.092;2024-03-02T01:55:50;49.20;;;31.50;;
57331;SDS011;43164;50.908;18.092;2024-03-02T01:58:18;55.40;;;31.10;;
57331;SDS011;43164;50.908;18.092;2024-03-02T02:00:48;54.50;;;32.00;;
57331;SDS011;43164;50.908;18.092;2024-03-02T02:03:16;49.50;;;30.20;;
57331;SDS011;43164;50.908;18.092;2024-03-02T02:05:47;52.20;;;30.30;;
57331;SDS011;43164;50.908;18.092;2024-03-02T02:08:16;53.30;;;31.00;;
57331;SDS011;43164;50.908;18.092;2024-03-02T02:10:44;52.70;;;31.00;;
57331;SDS011;43164;50.908;18.092;2024-03-02T02:13:12;52.30;;;30.80;;
57331;SDS011;43164;50.908;18.092;2024-03-02T02:15:39;55.90;;;31.80;;
57331;SDS011;43164;50.908;18.092;2024-03-02T02:18:07;53.10;;;30.40;;
57331;SDS011;43164;50.908;18.092;2024-03-02T02:20:34;53.40;;;31.40;;
57331;SDS011;43164;50.908;18.092;2024-03-02T02:23:05;51.60;;;29.90;;
57331;SDS011;43164;50.908;18.092;2024-03-02T02:25:33;52.20;;;28.60;;
57331;SDS011;43164;50.908;18.092;2024-03-02T02:28:01;52.20;;;29.50;;
57331;SDS011;43164;50.908;18.092;2024-03-02T02:30:30;48.30;;;28.60;;
57331;SDS011;43164;50.908;18.092;2024-03-02T02:32:58;48.40;;;28.30;;
57331;SDS011;43164;50.908;18.092;2024-03-02T02:35:26;49.80;;;28.60;;
57331;SDS011;43164;50.908;18.092;2024-03-02T02:37:54;54.00;;;31.00;;
57331;SDS011;43164;50.908;18.092;2024-03-02T02:40:22;50.70;;;28.50;;
57331;SDS011;43164;50.908;18.092;2024-03-02T02:42:49;46.40;;;29.30;;
57331;SDS011;43164;50.908;18.092;2024-03-02T02:45:22;49.90;;;29.50;;
57331;SDS011;43164;50.908;18.092;2024-03-02T02:47:50;47.20;;;28.90;;
57331;SDS011;43164;50.908;18.092;2024-03-02T02:50:20;45.80;;;28.40;;
57331;SDS011;43164;50.908;18.092;2024-03-02T02:52:47;46.40;;;27.90;;
57331;SDS011;43164;50.908;18.092;2024-03-02T02:55:15;48.80;;;29.00;;
57331;SDS011;43164;50.908;18.092;2024-03-02T02:57:43;47.10;;;28.70;;
57331;SDS011;43164;50.908;18.092;2024-03-02T03:00:11;43.00;;;26.40;;
57331;SDS011;43164;50.908;18.092;2024-03-02T03:02:47;42.00;;;26.60;;
57331;SDS011;43164;50.908;18.092;2024-03-02T03:05:16;43.20;;;27.20;;
57331;SDS011;43164;50.908;18.092;2024-03-02T03:07:44;44.90;;;28.00;;
57331;SDS011;43164;50.908;18.092;2024-03-02T03:10:15;44.80;;;26.50;;
57331;SDS011;43164;50.908;18.092;2024-03-02T03:12:46;44.60;;;27.10;;
57331;SDS011;43164;50.908;18.092;2024-03-02T03:15:13;45.30;;;26.90;;
57331;SDS011;43164;50.908;18.092;2024-03-02T03:17:41;43.10;;;26.70;;
57331;SDS011;43164;50.908;18.092;2024-03-02T03:20:09;47.20;;;27.30;;
57331;SDS011;43164;50.908;18.092;2024-03-02T03:22:37;44.10;;;25.60;;
57331;SDS011;43164;50.908;18.092;2024-03-02T03:25:06;45.20;;;27.10;;
57331;SDS011;43164;50.908;18.092;2024-03-02T03:27:39;41.50;;;27.30;;
57331;SDS011;43164;50.908;18.092;2024-03-02T03:30:07;44.90;;;27.70;;
57331;SDS011;43164;50.908;18.092;2024-03-02T03:32:34;47.10;;;27.10;;
57331;SDS011;43164;50.908;18.092;2024-03-02T03:35:03;43.70;;;26.50;;
57331;SDS011;43164;50.908;18.092;2024-03-02T03:37:30;45.20;;;26.30;;
57331;SDS011;43164;50.908;18.092;2024-03-02T03:40:05;42.10;;;26.40;;
57331;SDS011;43164;50.908;18.092;2024-03-02T03:42:37;41.60;;;25.80;;
57331;SDS011;43164;50.908;18.092;2024-03-02T03:45:05;40.90;;;26.10;;
57331;SDS011;43164;50.908;18.092;2024-03-02T03:47:33;43.40;;;25.10;;
57331;SDS011;43164;50.908;18.092;2024-03-02T03:50:01;39.60;;;25.20;;
57331;SDS011;43164;50.908;18.092;2024-03-02T03:52:33;41.10;;;24.50;;
57331;SDS011;43164;50.908;18.092;2024-03-02T03:55:02;43.30;;;25.30;;
57331;SDS011;43164;50.908;18.092;2024-03-02T03:57:32;41.20;;;23.80;;
57331;SDS011;43164;50.908;18.092;2024-03-02T03:59:59;38.90;;;24.30;;
57331;SDS011;43164;50.908;18.092;2024-03-02T04:02:35;39.20;;;23.10;;
57331;SDS011;43164;50.908;18.092;2024-03-02T04:05:02;38.60;;;23.70;;
57331;SDS011;43164;50.908;18.092;2024-03-02T04:07:36;38.80;;;23.80;;
57331;SDS011;43164;50.908;18.092;2024-03-02T04:10:09;39.10;;;23.20;;
57331;SDS011;43164;50.908;18.092;2024-03-02T04:12:43;39.80;;;24.20;;
57331;SDS011;43164;50.908;18.092;2024-03-02T04:15:11;42.70;;;25.00;;
57331;SDS011;43164;50.908;18.092;2024-03-02T04:17:38;37.30;;;24.10;;
57331;SDS011;43164;50.908;18.092;2024-03-02T04:20:06;45.00;;;25.50;;
57331;SDS011;43164;50.908;18.092;2024-03-02T04:22:34;38.40;;;22.80;;
57331;SDS011;43164;50.908;18.092;2024-03-02T04:25:02;36.40;;;23.20;;
57331;SDS011;43164;50.908;18.092;2024-03-02T04:27:31;38.20;;;23.30;;
57331;SDS011;43164;50.908;18.092;2024-03-02T04:30:00;39.30;;;23.70;;
57331;SDS011;43164;50.908;18.092;2024-03-02T04:32:27;38.00;;;23.70;;
57331;SDS011;43164;50.908;18.092;2024-03-02T04:34:55;38.50;;;23.70;;
57331;SDS011;43164;50.908;18.092;2024-03-02T04:37:22;41.70;;;24.40;;
57331;SDS011;43164;50.908;18.092;2024-03-02T04:39:50;39.10;;;24.00;;
57331;SDS011;43164;50.908;18.092;2024-03-02T04:42:18;36.70;;;23.10;;
57331;SDS011;43164;50.908;18.092;2024-03-02T04:44:48;36.90;;;22.40;;
57331;SDS011;43164;50.908;18.092;2024-03-02T04:47:15;36.70;;;22.70;;
57331;SDS011;43164;50.908;18.092;2024-03-02T04:49:42;39.60;;;23.10;;
57331;SDS011;43164;50.908;18.092;2024-03-02T04:52:10;36.90;;;22.10;;
57331;SDS011;43164;50.908;18.092;2024-03-02T04:54:37;36.50;;;21.40;;
57331;SDS011;43164;50.908;18.092;2024-03-02T04:57:25;36.40;;;21.90;;
57331;SDS011;43164;50.908;18.092;2024-03-02T04:59:53;37.50;;;22.30;;
57331;SDS011;43164;50.908;18.092;2024-03-02T05:02:33;36.50;;;22.90;;
57331;SDS011;43164;50.908;18.092;2024-03-02T05:05:24;37.00;;;23.40;;
57331;SDS011;43164;50.908;18.092;2024-03-02T05:07:58;35.90;;;23.30;;
57331;SDS011;43164;50.908;18.092;2024-03-02T05:10:39;35.10;;;21.70;;
57331;SDS011;43164;50.908;18.092;2024-03-02T05:13:16;36.20;;;23.20;;
57331;SDS011;43164;50.908;18.092;2024-03-02T05:15:50;43.50;;;27.10;;
57331;SDS011;43164;50.908;18.092;2024-03-02T05:18:26;39.90;;;25.30;;
57331;SDS011;43164;50.908;18.092;2024-03-02T05:21:00;42.10;;;25.60;;
57331;SDS011;43164;50.908;18.092;2024-03-02T05:23:45;44.90;;;25.50;;
57331;SDS011;43164;50.908;18.092;2024-03-02T05:29:26;43.90;;;27.30;;
57331;SDS011;43164;50.908;18.092;2024-03-02T05:32:00;42.20;;;26.70;;
57331;SDS011;43164;50.908;18.092;2024-03-02T05:34:27;47.30;;;27.20;;
57331;SDS011;43164;50.908;18.092;2024-03-02T05:36:56;42.00;;;25.90;;
57331;SDS011;43164;50.908;18.092;2024-03-02T05:39:24;41.90;;;26.20;;
57331;SDS011;43164;50.908;18.092;2024-03-02T05:41:57;39.10;;;23.70;;
57331;SDS011;43164;50.908;18.092;2024-03-02T05:44:27;37.90;;;23.10;;
57331;SDS011;43164;50.908;18.092;2024-03-02T05:46:55;35.50;;;21.40;;
57331;SDS011;43164;50.908;18.092;2024-03-02T05:49:24;33.00;;;21.00;;
57331;SDS011;43164;50.908;18.092;2024-03-02T05:51:52;32.20;;;20.80;;
57331;SDS011;43164;50.908;18.092;2024-03-02T05:54:24;34.20;;;21.10;;
57331;SDS011;43164;50.908;18.092;2024-03-02T05:56:56;33.40;;;21.30;;
57331;SDS011;43164;50.908;18.092;2024-03-02T05:59:57;36.70;;;20.70;;
57331;SDS011;43164;50.908;18.092;2024-03-02T06:02:43;29.90;;;18.40;;
57331;SDS011;43164;50.908;18.092;2024-03-02T06:05:11;32.30;;;20.30;;
57331;SDS011;43164;50.908;18.092;2024-03-02T06:07:41;35.50;;;20.90;;
57331;SDS011;43164;50.908;18.092;2024-03-02T06:10:10;33.30;;;20.80;;
57331;SDS011;43164;50.908;18.092;2024-03-02T06:12:39;33.80;;;19.50;;
57331;SDS011;43164;50.908;18.092;2024-03-02T06:15:09;31.50;;;20.30;;
57331;SDS011;43164;50.908;18.092;2024-03-02T06:17:38;33.30;;;20.50;;
57331;SDS011;43164;50.908;18.092;2024-03-02T06:20:08;33.20;;;20.90;;
57331;SDS011;43164;50.908;18.092;2024-03-02T06:22:41;32.30;;;19.50;;
57331;SDS011;43164;50.908;18.092;2024-03-02T06:25:11;31.60;;;20.40;;
57331;SDS011;43164;50.908;18.092;2024-03-02T06:27:43;33.80;;;19.90;;
57331;SDS011;43164;50.908;18.092;2024-03-02T06:30:14;34.20;;;22.00;;
57331;SDS011;43164;50.908;18.092;2024-03-02T06:32:43;31.70;;;20.80;;
57331;SDS011;43164;50.908;18.092;2024-03-02T06:35:12;35.00;;;22.10;;
57331;SDS011;43164;50.908;18.092;2024-03-02T06:37:40;34.00;;;19.80;;
57331;SDS011;43164;50.908;18.092;2024-03-02T06:40:08;30.80;;;19.30;;
57331;SDS011;43164;50.908;18.092;2024-03-02T06:42:35;30.30;;;18.50;;
57331;SDS011;43164;50.908;18.092;2024-03-02T06:45:03;32.30;;;19.80;;
57331;SDS011;43164;50.908;18.092;2024-03-02T06:47:32;30.60;;;18.60;;
57331;SDS011;43164;50.908;18.092;2024-03-02T06:50:27;32.80;;;19.50;;
57331;SDS011;43164;50.908;18.092;2024-03-02T06:56:21;30.90;;;18.60;;
57331;SDS011;43164;50.908;18.092;2024-03-02T06:58:51;31.70;;;18.50;;
57331;SDS011;43164;50.908;18.092;2024-03-02T07:01:19;30.70;;;17.70;;
57331;SDS011;43164;50.908;18.092;2024-03-02T07:03:47;29.00;;;18.50;;
57331;SDS011;43164;50.908;18.092;2024-03-02T07:06:15;30.60;;;18.40;;
57331;SDS011;43164;50.908;18.092;2024-03-02T07:08:42;29.90;;;17.60;;
57331;SDS011;43164;50.908;18.092;2024-03-02T07:11:19;30.70;;;19.40;;
57331;SDS011;43164;50.908;18.092;2024-03-02T07:14:01;29.30;;;18.20;;
57331;SDS011;43164;50.908;18.092;2024-03-02T07:20:06;26.50;;;16.60;;
57331;SDS011;43164;50.908;18.092;2024-03-02T07:22:34;30.80;;;16.90;;
57331;SDS011;43164;50.908;18.092;2024-03-02T07:25:01;31.90;;;17.30;;
57331;SDS011;43164;50.908;18.092;2024-03-02T07:27:30;32.00;;;18.10;;
57331;SDS011;43164;50.908;18.092;2024-03-02T07:29:58;31.00;;;18.10;;
57331;SDS011;43164;50.908;18.092;2024-03-02T07:32:27;27.60;;;17.40;;
57331;SDS011;43164;50.908;18.092;2024-03-02T07:34:55;30.70;;;17.60;;
57331;SDS011;43164;50.908;18.092;2024-03-02T07:37:25;26.40;;;16.90;;
57331;SDS011;43164;50.908;18.092;2024-03-02T07:39:53;29.80;;;17.40;;
57331;SDS011;43164;50.908;18.092;2024-03-02T07:42:25;30.30;;;16.90;;
57331;SDS011;43164;50.908;18.092;2024-03-02T07:44:54;28.90;;;16.40;;
57331;SDS011;43164;50.908;18.092;2024-03-02T07:47:22;25.70;;;16.40;;
57331;SDS011;43164;50.908;18.092;2024-03-02T07:49:50;25.00;;;16.10;;
57331;SDS011;43164;50.908;18.092;2024-03-02T07:52:18;23.90;;;15.60;;
57331;SDS011;43164;50.908;18.092;2024-03-02T07:54:46;24.10;;;16.10;;
57331;SDS011;43164;50.908;18.092;2024-03-02T07:57:14;30.10;;;17.90;;
57331;SDS011;43164;50.908;18.092;2024-03-02T07:59:40;28.00;;;17.80;;
57331;SDS011;43164;50.908;18.092;2024-03-02T08:02:09;28.20;;;18.00;;
57331;SDS011;43164;50.908;18.092;2024-03-02T08:04:37;27.80;;;17.10;;
57331;SDS011;43164;50.908;18.092;2024-03-02T08:07:07;26.00;;;16.90;;
57331;SDS011;43164;50.908;18.092;2024-03-02T08:09:36;27.20;;;18.60;;
57331;SDS011;43164;50.908;18.092;2024-03-02T08:12:04;27.50;;;17.50;;
57331;SDS011;43164;50.908;18.092;2024-03-02T08:14:32;26.40;;;16.70;;
57331;SDS011;43164;50.908;18.092;2024-03-02T08:16:59;29.20;;;15.80;;
57331;SDS011;43164;50.908;18.092;2024-03-02T08:19:28;26.10;;;15.90;;
57331;SDS011;43164;50.908;18.092;2024-03-02T08:21:56;24.50;;;15.90;;
57331;SDS011;43164;50.908;18.092;2024-03-02T08:24:23;25.10;;;16.40;;
57331;SDS011;43164;50.908;18.092;2024-03-02T08:26:50;24.60;;;15.40;;
57331;SDS011;43164;50.908;18.092;2024-03-02T08:29:18;25.50;;;15.70;;
57331;SDS011;43164;50.908;18.092;2024-03-02T08:31:44;24.20;;;15.60;;
57331;SDS011;43164;50.908;18.092;2024-03-02T08:34:12;25.10;;;15.80;;
57331;SDS011;43164;50.908;18.092;2024-03-02T08:36:40;24.10;;;15.20;;
57331;SDS011;43164;50.908;18.092;2024-03-02T08:42:06;22.00;;;14.60;;
57331;SDS011;43164;50.908;18.092;2024-03-02T08:44:34;24.60;;;14.70;;
57331;SDS011;43164;50.908;18.092;2024-03-02T08:47:01;24.40;;;14.30;;
57331;SDS011;43164;50.908;18.092;2024-03-02T08:49:30;24.50;;;13.90;;
57331;SDS011;43164;50.908;18.092;2024-03-02T08:51:57;22.30;;;13.90;;
57331;SDS011;43164;50.908;18.092;2024-03-02T08:54:25;22.90;;;13.90;;
57331;SDS011;43164;50.908;18.092;2024-03-02T08:56:55;23.20;;;14.00;;
57331;SDS011;43164;50.908;18.092;2024-03-02T08:59:23;23.50;;;13.10;;
57331;SDS011;43164;50.908;18.092;2024-03-02T09:01:51;22.70;;;13.80;;
57331;SDS011;43164;50.908;18.092;2024-03-02T09:04:20;23.50;;;13.90;;
57331;SDS011;43164;50.908;18.092;2024-03-02T09:06:47;23.00;;;13.90;;
57331;SDS011;43164;50.908;18.092;2024-03-02T09:09:15;23.80;;;13.00;;
57331;SDS011;43164;50.908;18.092;2024-03-02T09:11:42;21.60;;;13.30;;
57331;SDS011;43164;50.908;18.092;2024-03-02T09:14:10;26.20;;;14.60;;
57331;SDS011;43164;50.908;18.092;2024-03-02T09:16:37;21.10;;;12.80;;
57331;SDS011;43164;50.908;18.092;2024-03-02T09:19:05;20.80;;;12.00;;
57331;SDS011;43164;50.908;18.092;2024-03-02T09:21:34;21.50;;;12.70;;
57331;SDS011;43164;50.908;18.092;2024-03-02T09:24:01;21.10;;;11.90;;
57331;SDS011;43164;50.908;18.092;2024-03-02T09:26:30;22.30;;;12.70;;
57331;SDS011;43164;50.908;18.092;2024-03-02T09:31:47;21.30;;;12.70;;
57331;SDS011;43164;50.908;18.092;2024-03-02T09:34:16;20.50;;;12.60;;
57331;SDS011;43164;50.908;18.092;2024-03-02T09:36:44;19.70;;;11.80;;
57331;SDS011;43164;50.908;18.092;2024-03-02T09:39:14;17.70;;;11.10;;
57331;SDS011;43164;50.908;18.092;2024-03-02T09:41:45;20.00;;;11.30;;
57331;SDS011;43164;50.908;18.092;2024-03-02T09:44:12;19.30;;;10.80;;
57331;SDS011;43164;50.908;18.092;2024-03-02T09:46:40;17.70;;;10.60;;
57331;SDS011;43164;50.908;18.092;2024-03-02T09:49:15;18.60;;;10.60;;
57331;SDS011;43164;50.908;18.092;2024-03-02T09:51:47;20.50;;;10.70;;
57331;SDS011;43164;50.908;18.092;2024-03-02T09:54:19;17.80;;;10.30;;
57331;SDS011;43164;50.908;18.092;2024-03-02T09:56:47;17.60;;;10.40;;
57331;SDS011;43164;50.908;18.092;2024-03-02T09:59:16;17.80;;;10.30;;
57331;SDS011;43164;50.908;18.092;2024-03-02T10:01:59;14.70;;;9.20;;
57331;SDS011;43164;50.908;18.092;2024-03-02T10:07:27;16.20;;;8.90;;
57331;SDS011;43164;50.908;18.092;2024-03-02T10:09:54;15.50;;;8.50;;
57331;SDS011;43164;50.908;18.092;2024-03-02T10:12:22;17.10;;;9.10;;
57331;SDS011;43164;50.908;18.092;2024-03-02T10:14:52;13.40;;;8.50;;
57331;SDS011;43164;50.908;18.092;2024-03-02T10:17:33;16.60;;;8.80;;
57331;SDS011;43164;50.908;18.092;2024-03-02T10:23:09;14.10;;;7.90;;
57331;SDS011;43164;50.908;18.092;2024-03-02T10:26:20;14.40;;;7.70;;
57331;SDS011;43164;50.908;18.092;2024-03-02T10:28:47;15.00;;;7.90;;
57331;SDS011;43164;50.908;18.092;2024-03-02T10:31:15;15.00;;;7.70;;
57331;SDS011;43164;50.908;18.092;2024-03-02T10:33:42;14.30;;;7.70;;
57331;SDS011;43164;50.908;18.092;2024-03-02T10:36:11;15.70;;;7.60;;
57331;SDS011;43164;50.908;18.092;2024-03-02T10:38:40;13.60;;;7.70;;
57331;SDS011;43164;50.908;18.092;2024-03-02T10:44:01;14.30;;;8.10;;
57331;SDS011;43164;50.908;18.092;2024-03-02T10:49:17;15.50;;;8.00;;
57331;SDS011;43164;50.908;18.092;2024-03-02T10:51:44;14.20;;;8.00;;
57331;SDS011;43164;50.908;18.092;2024-03-02T10:54:11;13.50;;;7.40;;
57331;SDS011;43164;50.908;18.092;2024-03-02T10:56:40;13.10;;;7.60;;
57331;SDS011;43164;50.908;18.092;2024-03-02T10:59:21;12.60;;;7.20;;
57331;SDS011;43164;50.908;18.092;2024-03-02T11:02:00;12.80;;;7.00;;
57331;SDS011;43164;50.908;18.092;2024-03-02T11:04:31;14.30;;;6.40;;
57331;SDS011;43164;50.908;18.092;2024-03-02T11:09:58;13.60;;;6.50;;
57331;SDS011;43164;50.908;18.092;2024-03-02T11:12:31;11.20;;;6.10;;
57331;SDS011;43164;50.908;18.092;2024-03-02T11:15:24;12.60;;;6.90;;
57331;SDS011;43164;50.908;18.092;2024-03-02T11:17:55;12.90;;;6.50;;
57331;SDS011;43164;50.908;18.092;2024-03-02T11:20:24;12.60;;;6.90;;
57331;SDS011;43164;50.908;18.092;2024-03-02T11:22:53;12.70;;;6.80;;
57331;SDS011;43164;50.908;18.092;2024-03-02T11:25:27;14.70;;;7.20;;
57331;SDS011;43164;50.908;18.092;2024-03-02T11:33:04;12.70;;;7.20;;
57331;SDS011;43164;50.908;18.092;2024-03-02T11:35:42;11.80;;;6.60;;
57331;SDS011;43164;50.908;18.092;2024-03-02T11:38:17;13.00;;;7.40;;
57331;SDS011;43164;50.908;18.092;2024-03-02T11:40:45;11.90;;;7.00;;
57331;SDS011;43164;50.908;18.092;2024-03-02T11:43:12;12.80;;;7.00;;
57331;SDS011;43164;50.908;18.092;2024-03-02T11:45:41;15.40;;;7.40;;
57331;SDS011;43164;50.908;18.092;2024-03-02T11:48:11;12.10;;;6.50;;
57331;SDS011;43164;50.908;18.092;2024-03-02T11:50:49;12.50;;;7.60;;
57331;SDS011;43164;50.908;18.092;2024-03-02T11:53:18;14.70;;;8.20;;
57331;SDS011;43164;50.908;18.092;2024-03-02T11:55:46;15.30;;;7.60;;
57331;SDS011;43164;50.908;18.092;2024-03-02T11:58:14;14.00;;;8.20;;
57331;SDS011;43164;50.908;18.092;2024-03-02T12:00:50;14.00;;;7.50;;
57331;SDS011;43164;50.908;18.092;2024-03-02T12:03:18;14.60;;;7.90;;
57331;SDS011;43164;50.908;18.092;2024-03-02T12:05:56;13.80;;;7.20;;
57331;SDS011;43164;50.908;18.092;2024-03-02T12:08:24;14.10;;;7.50;;
57331;SDS011;43164;50.908;18.092;2024-03-02T12:13:52;15.00;;;7.80;;
57331;SDS011;43164;50.908;18.092;2024-03-02T12:16:29;14.20;;;7.70;;
57331;SDS011;43164;50.908;18.092;2024-03-02T12:18:59;14.70;;;8.00;;
57331;SDS011;43164;50.908;18.092;2024-03-02T12:21:27;13.90;;;8.20;;
57331;SDS011;43164;50.908;18.092;2024-03-02T12:23:53;16.10;;;7.30;;
57331;SDS011;43164;50.908;18.092;2024-03-02T12:26:23;13.40;;;7.50;;
57331;SDS011;43164;50.908;18.092;2024-03-02T12:28:52;15.80;;;7.50;;
57331;SDS011;43164;50.908;18.092;2024-03-02T12:31:20;16.30;;;7.90;;
57331;SDS011;43164;50.908;18.092;2024-03-02T12:33:50;12.90;;;7.30;;
57331;SDS011;43164;50.908;18.092;2024-03-02T12:36:17;13.10;;;7.40;;
57331;SDS011;43164;50.908;18.092;2024-03-02T12:38:47;13.40;;;7.30;;
57331;SDS011;43164;50.908;18.092;2024-03-02T12:41:31;13.20;;;7.30;;
57331;SDS011;43164;50.908;18.092;2024-03-02T12:44:00;11.40;;;6.70;;
57331;SDS011;43164;50.908;18.092;2024-03-02T12:46:27;12.60;;;7.40;;
57331;SDS011;43164;50.908;18.092;2024-03-02T12:49:21;13.70;;;7.60;;
57331;SDS011;43164;50.908;18.092;2024-03-02T12:51:57;13.90;;;7.30;;
57331;SDS011;43164;50.908;18.092;2024-03-02T12:54:24;12.90;;;7.40;;
57331;SDS011;43164;50.908;18.092;2024-03-02T12:56:53;15.20;;;7.50;;
57331;SDS011;43164;50.908;18.092;2024-03-02T12:59:23;13.60;;;7.90;;
57331;SDS011;43164;50.908;18.092;2024-03-02T13:01:53;13.70;;;8.00;;
57331;SDS011;43164;50.908;18.092;2024-03-02T13:04:27;13.50;;;6.90;;
57331;SDS011;43164;50.908;18.092;2024-03-02T13:06:56;16.00;;;8.30;;
57331;SDS011;43164;50.908;18.092;2024-03-02T13:09:28;15.50;;;7.90;;
57331;SDS011;43164;50.908;18.092;2024-03-02T13:11:59;12.60;;;7.30;;
57331;SDS011;43164;50.908;18.092;2024-03-02T13:14:27;14.20;;;7.30;;
57331;SDS011;43164;50.908;18.092;2024-03-02T13:16:55;15.00;;;7.60;;
57331;SDS011;43164;50.908;18.092;2024-03-02T13:19:26;14.40;;;7.20;;
57331;SDS011;43164;50.908;18.092;2024-03-02T13:22:21;11.80;;;6.90;;
57331;SDS011;43164;50.908;18.092;2024-03-02T13:24:51;13.80;;;7.70;;
57331;SDS011;43164;50.908;18.092;2024-03-02T13:27:21;14.00;;;6.90;;
57331;SDS011;43164;50.908;18.092;2024-03-02T13:32:24;14.20;;;7.40;;
57331;SDS011;43164;50.908;18.092;2024-03-02T13:34:52;14.80;;;8.30;;
57331;SDS011;43164;50.908;18.092;2024-03-02T13:37:20;15.60;;;8.00;;
57331;SDS011;43164;50.908;18.092;2024-03-02T13:40:03;16.60;;;8.90;;
57331;SDS011;43164;50.908;18.092;2024-03-02T13:43:24;14.30;;;8.60;;
57331;SDS011;43164;50.908;18.092;2024-03-02T13:45:53;15.00;;;8.60;;
57331;SDS011;43164;50.908;18.092;2024-03-02T13:48:22;15.10;;;8.70;;
57331;SDS011;43164;50.908;18.092;2024-03-02T13:50:50;16.40;;;8.90;;
57331;SDS011;43164;50.908;18.092;2024-03-02T13:53:17;15.90;;;9.40;;
57331;SDS011;43164;50.908;18.092;2024-03-02T13:55:47;16.80;;;9.60;;
57331;SDS011;43164;50.908;18.092;2024-03-02T13:58:14;16.30;;;9.10;;
57331;SDS011;43164;50.908;18.092;2024-03-02T14:00:41;16.10;;;9.40;;
57331;SDS011;43164;50.908;18.092;2024-03-02T14:03:09;16.70;;;9.80;;
57331;SDS011;43164;50.908;18.092;2024-03-02T14:05:37;16.10;;;9.50;;
57331;SDS011;43164;50.908;18.092;2024-03-02T14:08:05;18.40;;;10.00;;
57331;SDS011;43164;50.908;18.092;2024-03-02T14:10:46;19.90;;;10.00;;
57331;SDS011;43164;50.908;18.092;2024-03-02T14:13:14;18.30;;;9.90;;
57331;SDS011;43164;50.908;18.092;2024-03-02T14:15:41;18.80;;;9.80;;
57331;SDS011;43164;50.908;18.092;2024-03-02T14:18:09;19.30;;;10.10;;
57331;SDS011;43164;50.908;18.092;2024-03-02T14:20:41;16.40;;;9.30;;
57331;SDS011;43164;50.908;18.092;2024-03-02T14:23:09;18.60;;;9.50;;
57331;SDS011;43164;50.908;18.092;2024-03-02T14:25:38;19.00;;;10.50;;
57331;SDS011;43164;50.908;18.092;2024-03-02T14:28:05;16.70;;;10.00;;
57331;SDS011;43164;50.908;18.092;2024-03-02T14:30:33;16.60;;;9.60;;
57331;SDS011;43164;50.908;18.092;2024-03-02T14:33:01;16.70;;;9.90;;
57331;SDS011;43164;50.908;18.092;2024-03-02T14:35:31;17.00;;;10.20;;
57331;SDS011;43164;50.908;18.092;2024-03-02T14:37:59;17.20;;;9.70;;
57331;SDS011;43164;50.908;18.092;2024-03-02T14:40:27;18.90;;;9.40;;
57331;SDS011;43164;50.908;18.092;2024-03-02T14:42:55;18.80;;;10.60;;
57331;SDS011;43164;50.908;18.092;2024-03-02T14:45:24;17.80;;;10.50;;
57331;SDS011;43164;50.908;18.092;2024-03-02T14:48:01;19.50;;;10.90;;
57331;SDS011;43164;50.908;18.092;2024-03-02T14:50:40;18.30;;;11.10;;
57331;SDS011;43164;50.908;18.092;2024-03-02T14:53:07;19.00;;;10.50;;
57331;SDS011;43164;50.908;18.092;2024-03-02T14:55:35;20.50;;;12.00;;
57331;SDS011;43164;50.908;18.092;2024-03-02T14:58:03;20.20;;;11.60;;
57331;SDS011;43164;50.908;18.092;2024-03-02T15:00:31;21.30;;;12.00;;
57331;SDS011;43164;50.908;18.092;2024-03-02T15:02:57;20.30;;;11.50;;
57331;SDS011;43164;50.908;18.092;2024-03-02T15:05:26;20.70;;;12.00;;
57331;SDS011;43164;50.908;18.092;2024-03-02T15:07:57;20.10;;;12.40;;
57331;SDS011;43164;50.908;18.092;2024-03-02T15:10:38;17.50;;;11.90;;
57331;SDS011;43164;50.908;18.092;2024-03-02T15:13:11;18.20;;;11.50;;
57331;SDS011;43164;50.908;18.092;2024-03-02T15:15:40;20.90;;;12.20;;
57331;SDS011;43164;50.908;18.092;2024-03-02T15:18:22;23.80;;;13.20;;